createdAt,value
2023-01-18T13:07:07.571Z,0.46
2023-01-18T13:08:07.457Z,0.50
2023-01-18T13:09:07.344Z,0.50
2023-01-18T13:10:07.250Z,0.50
2023-01-18T13:11:07.167Z,0.50
2023-01-18T13:12:07.102Z,0.51
2023-01-18T13:13:06.985Z,0.51
2023-01-18T13:15:06.793Z,0.51
2023-01-18T13:16:06.713Z,0.50
2023-01-18T13:17:06.647Z,0.50
2023-01-18T13:18:06.617Z,0.50
2023-01-18T13:19:06.606Z,0.50
2023-01-18T13:20:06.561Z,0.50
2023-01-18T13:21:06.532Z,0.51
2023-01-18T13:22:06.508Z,0.51
2023-01-18T13:23:06.473Z,0.50
2023-01-18T13:24:06.442Z,0.50
2023-01-18T13:25:06.422Z,0.51
2023-01-18T13:26:06.421Z,0.51
2023-01-18T13:27:06.374Z,0.50
2023-01-18T13:28:06.352Z,0.51
2023-01-18T13:29:06.314Z,0.51
2023-01-18T13:30:06.292Z,0.51
2023-01-18T13:31:06.405Z,0.50
2023-01-18T13:32:06.238Z,0.51
2023-01-18T13:33:06.225Z,0.50
2023-01-18T13:34:06.198Z,0.51
2023-01-18T13:35:19.608Z,0.51
2023-01-18T13:36:07.127Z,0.51
2023-01-18T13:37:15.062Z,0.49
2023-01-18T13:38:06.887Z,0.50
2023-01-18T13:39:05.782Z,0.49
2023-01-18T13:40:05.696Z,0.49
2023-01-18T13:41:05.605Z,0.49
2023-01-18T13:42:05.518Z,0.48
2023-01-18T14:49:00.220Z,0.62
2023-01-18T14:50:00.141Z,0.63
2023-01-18T14:51:00.049Z,0.63
2023-01-18T14:51:59.979Z,0.62
2023-01-18T14:53:00.428Z,0.63
2023-01-18T14:53:59.807Z,0.64
2023-01-18T14:54:59.728Z,0.64
2023-01-18T14:55:59.652Z,0.63
2023-01-18T14:56:59.567Z,0.64
2023-01-18T14:57:59.497Z,0.65
2023-01-18T14:58:59.429Z,0.64
2023-01-18T14:59:59.332Z,0.66
2023-01-18T15:00:59.348Z,0.66
2023-01-18T15:01:59.354Z,0.67
2023-01-18T15:02:59.385Z,0.65
2023-01-18T15:03:59.019Z,0.66
2023-01-18T15:04:58.942Z,0.66
2023-01-18T15:05:58.852Z,0.66
2023-01-18T15:06:58.767Z,0.67
2023-01-18T15:07:58.705Z,0.68
2023-01-18T15:08:58.628Z,0.68
2023-01-18T15:09:58.548Z,0.67
2023-01-18T15:10:58.469Z,0.68
2023-01-18T15:11:58.397Z,0.68
2023-01-18T15:12:58.759Z,0.67
2023-01-18T15:13:58.283Z,0.64
2023-01-18T15:14:58.187Z,0.66
2023-01-18T15:16:00.975Z,0.67
2023-01-18T15:16:58.035Z,0.67
2023-01-18T15:17:58.319Z,0.66
2023-01-18T15:18:57.835Z,0.68
2023-01-18T15:19:57.739Z,0.68
2023-01-18T15:20:57.652Z,0.67
2023-01-18T15:21:57.540Z,0.68
2023-01-18T15:22:57.811Z,0.67
2023-01-18T15:23:57.356Z,0.69
2023-01-18T15:24:57.254Z,0.69
2023-01-18T15:25:57.168Z,0.68
2023-01-18T15:26:57.071Z,0.70
2023-01-18T15:27:56.986Z,0.68
2023-01-18T15:28:56.887Z,0.69
2023-01-18T15:29:56.824Z,0.70
2023-01-18T15:30:56.714Z,0.69
2023-01-18T15:31:56.635Z,0.69
2023-01-18T15:32:56.651Z,0.69
2023-01-18T15:33:56.421Z,0.69
2023-01-18T15:34:56.323Z,0.72
2023-01-18T15:35:56.240Z,0.70
2023-01-18T15:36:56.138Z,0.72
2023-01-18T15:37:56.061Z,0.72
2023-01-18T15:38:55.943Z,0.71
2023-01-18T15:39:55.854Z,0.71
2023-01-18T15:40:55.765Z,0.72
2023-01-18T15:41:55.649Z,0.71
2023-01-18T15:42:55.558Z,0.73
2023-01-18T17:32:48.297Z,1.06
2023-01-18T17:40:47.897Z,1.08
2023-01-18T17:46:47.662Z,1.08
2023-01-18T18:06:54.178Z,1.15
2023-01-18T18:07:47.533Z,1.15
2023-01-18T18:08:46.429Z,1.15
2023-01-18T18:09:46.333Z,1.14
2023-01-18T18:10:46.239Z,1.13
2023-01-18T18:11:46.145Z,1.15
2023-01-18T18:12:46.031Z,1.18
2023-01-18T18:13:45.960Z,1.18
2023-01-18T18:14:45.852Z,1.17
2023-01-18T18:15:45.806Z,1.17
2023-01-18T18:16:45.712Z,1.18
2023-01-18T18:17:45.585Z,1.17
2023-01-18T21:36:36.041Z,1.61
2023-01-18T21:37:35.997Z,1.57
2023-01-18T21:38:35.955Z,1.60
2023-01-18T21:39:35.942Z,1.61
2023-01-18T21:40:35.859Z,1.58
2023-01-18T21:41:35.813Z,1.58
2023-01-18T21:42:35.763Z,1.58
2023-01-18T21:43:35.712Z,1.62
2023-01-18T21:44:35.680Z,1.60
2023-01-18T21:45:35.657Z,1.61
2023-01-18T21:46:35.584Z,1.62
2023-01-18T21:47:35.546Z,1.60
2023-01-18T21:48:35.498Z,1.59
2023-01-18T23:02:33.120Z,1.70
2023-01-18T23:03:33.131Z,1.70
2023-01-18T23:04:33.067Z,1.70
2023-01-18T23:05:33.040Z,1.72
2023-01-18T23:06:33.016Z,1.74
2023-01-18T23:07:32.990Z,1.72
2023-01-18T23:08:32.963Z,1.70
2023-01-18T23:09:32.936Z,1.75
2023-01-18T23:10:32.916Z,1.69
2023-01-18T23:11:32.882Z,1.74
2023-01-18T23:12:32.851Z,1.69
2023-01-18T23:13:32.840Z,1.70
2023-01-18T23:14:32.809Z,1.72
2023-01-18T23:15:32.818Z,1.69
2023-01-18T23:16:32.757Z,1.73
2023-01-18T23:17:32.724Z,1.74
2023-01-18T23:18:32.740Z,1.74
2023-01-18T23:19:32.673Z,1.74
2023-01-18T23:20:32.650Z,1.75
2023-01-18T23:21:32.628Z,1.73
2023-01-18T23:22:32.594Z,1.75
2023-01-18T23:23:32.562Z,1.73
2023-01-18T23:24:32.521Z,1.75
2023-01-18T23:25:32.494Z,1.76
2023-01-18T23:26:32.482Z,1.74
2023-01-18T23:27:32.453Z,1.72
2023-01-18T23:28:32.406Z,1.75
2023-01-18T23:29:32.385Z,1.74
2023-01-18T23:30:32.382Z,1.75
2023-01-18T23:31:32.384Z,1.75
2023-01-18T23:32:32.313Z,1.78
2023-01-18T23:33:32.289Z,1.76
2023-01-18T23:34:32.273Z,1.72
2023-01-18T23:35:32.220Z,1.75
2023-01-18T23:36:32.209Z,1.78
2023-01-18T23:37:32.186Z,1.73
2023-01-18T23:38:32.155Z,1.75
2023-01-18T23:39:32.206Z,1.77
2023-01-18T23:40:32.113Z,1.75
2023-01-18T23:41:32.106Z,1.77
2023-01-18T23:42:32.077Z,1.75
2023-01-18T23:43:32.041Z,1.73
2023-01-18T23:44:32.030Z,1.75
2023-01-18T23:45:32.009Z,1.75
2023-01-18T23:46:32.097Z,1.77
2023-01-18T23:57:31.733Z,1.78
2023-01-18T23:58:31.713Z,1.76
2023-01-18T23:59:31.686Z,1.83
